Time;durP1;ratioP1;P1;durP2;ratioP2;P2;SDS_P1;SDS_P2;PMS_P1;PMS_P2;Temp;Humidity;BMP_temperature;BMP_pressure;BME280_temperature;BME280_humidity;BME280_pressure;Samples;Min_cycle;Max_cycle;Signal;HPM_P1;HPM_P2
2022/05/27 00:00:00;;;;;;;0.3;0.3;;;;;;;16.7;100.0;101710;;;;
2022/05/27 00:01:00;;;;;;;0.3;0.3;;;;;;;16.7;100.0;101710;;;;
2022/05/27 00:02:00;;;;;;;0.3;0.3;;;;;;;16.7;100.0;101710;;;;
2022/05/27 00:03:00;;;;;;;0.3;0.3;;;;;;;16.7;100.0;101710;;;;
2022/05/27 00:04:01;;;;;;;0.3;0.3;;;;;;;16.6;100.0;101710;;;;
2022/05/27 00:05:01;;;;;;;0.3;0.3;;;;;;;16.6;100.0;101710;;;;
2022/05/27 00:06:00;;;;;;;0.3;0.3;;;;;;;16.5;100.0;101700;;;;
2022/05/27 00:07:00;;;;;;;0.3;0.3;;;;;;;16.5;100.0;101700;;;;
2022/05/27 00:08:00;;;;;;;0.3;0.3;;;;;;;16.6;100.0;101700;;;;
2022/05/27 00:09:00;;;;;;;0.3;0.3;;;;;;;16.6;100.0;101700;;;;
2022/05/27 00:10:00;;;;;;;0.3;0.3;;;;;;;16.6;100.0;101700;;;;
2022/05/27 00:11:00;;;;;;;0.3;0.3;;;;;;;16.6;100.0;101700;;;;
2022/05/27 00:12:00;;;;;;;0.3;0.3;;;;;;;16.6;100.0;101700;;;;
2022/05/27 00:13:00;;;;;;;0.3;0.3;;;;;;;16.6;100.0;101700;;;;
2022/05/27 00:14:00;;;;;;;0.3;0.3;;;;;;;16.7;100.0;101700;;;;
2022/05/27 00:15:00;;;;;;;0.3;0.3;;;;;;;16.7;100.0;101700;;;;
2022/05/27 00:16:00;;;;;;;0.3;0.3;;;;;;;16.6;100.0;101700;;;;
2022/05/27 00:17:00;;;;;;;0.3;0.3;;;;;;;16.6;100.0;101700;;;;
2022/05/27 00:18:00;;;;;;;0.3;0.3;;;;;;;16.8;100.0;101710;;;;
2022/05/27 00:19:00;;;;;;;0.3;0.3;;;;;;;16.8;100.0;101710;;;;
2022/05/27 00:20:00;;;;;;;0.3;0.3;;;;;;;16.7;100.0;101700;;;;
2022/05/27 00:21:00;;;;;;;0.3;0.3;;;;;;;16.7;100.0;101700;;;;
2022/05/27 00:22:00;;;;;;;0.3;0.3;;;;;;;16.6;100.0;101700;;;;
2022/05/27 00:23:00;;;;;;;0.3;0.3;;;;;;;16.6;100.0;101700;;;;
2022/05/27 00:24:00;;;;;;;0.3;0.3;;;;;;;16.5;100.0;101690;;;;
2022/05/27 00:25:00;;;;;;;0.3;0.3;;;;;;;16.5;100.0;101690;;;;
2022/05/27 00:26:00;;;;;;;0.3;0.3;;;;;;;16.5;100.0;101690;;;;
2022/05/27 00:27:01;;;;;;;0.3;0.3;;;;;;;16.5;100.0;101690;;;;
2022/05/27 00:28:00;;;;;;;0.3;0.3;;;;;;;16.6;100.0;101700;;;;
2022/05/27 00:29:02;;;;;;;0.3;0.3;;;;;;;16.6;100.0;101700;;;;
2022/05/27 00:30:03;;;;;;;0.3;0.3;;;;;;;16.6;100.0;101700;;;;
2022/05/27 00:31:00;;;;;;;0.3;0.3;;;;;;;16.6;100.0;101700;;;;
2022/05/27 00:32:00;;;;;;;0.3;0.3;;;;;;;16.7;100.0;101690;;;;
2022/05/27 00:33:00;;;;;;;0.3;0.3;;;;;;;16.7;100.0;101690;;;;
2022/05/27 00:34:00;;;;;;;0.3;0.3;;;;;;;16.6;100.0;101690;;;;
2022/05/27 00:35:01;;;;;;;0.3;0.3;;;;;;;16.6;100.0;101690;;;;
2022/05/27 00:36:00;;;;;;;0.3;0.3;;;;;;;16.4;100.0;101690;;;;
2022/05/27 00:37:04;;;;;;;0.3;0.3;;;;;;;16.4;100.0;101690;;;;
2022/05/27 00:38:00;;;;;;;0.3;0.3;;;;;;;16.6;100.0;101690;;;;
2022/05/27 00:39:02;;;;;;;0.3;0.3;;;;;;;16.6;100.0;101690;;;;
2022/05/27 00:40:00;;;;;;;0.3;0.3;;;;;;;16.5;100.0;101690;;;;
2022/05/27 00:41:00;;;;;;;0.3;0.3;;;;;;;16.5;100.0;101690;;;;
2022/05/27 00:42:00;;;;;;;0.3;0.3;;;;;;;16.5;100.0;101690;;;;
2022/05/27 00:43:00;;;;;;;0.3;0.3;;;;;;;16.5;100.0;101690;;;;
2022/05/27 00:44:00;;;;;;;0.3;0.3;;;;;;;16.5;100.0;101680;;;;
2022/05/27 00:45:00;;;;;;;0.3;0.3;;;;;;;16.5;100.0;101680;;;;
2022/05/27 00:46:06;;;;;;;0.3;0.3;;;;;;;16.6;100.0;101690;;;;
2022/05/27 00:47:03;;;;;;;0.3;0.3;;;;;;;16.6;100.0;101690;;;;
2022/05/27 00:48:01;;;;;;;0.3;0.3;;;;;;;16.6;100.0;101690;;;;
2022/05/27 00:49:05;;;;;;;0.3;0.3;;;;;;;16.6;100.0;101690;;;;
2022/05/27 00:50:03;;;;;;;0.3;0.3;;;;;;;16.6;100.0;101690;;;;
2022/05/27 00:51:00;;;;;;;0.3;0.3;;;;;;;16.6;100.0;101690;;;;
2022/05/27 00:52:04;;;;;;;0.3;0.3;;;;;;;16.5;100.0;101690;;;;
2022/05/27 00:53:02;;;;;;;0.3;0.3;;;;;;;16.5;100.0;101690;;;;
2022/05/27 00:54:00;;;;;;;0.3;0.3;;;;;;;16.5;100.0;101690;;;;
2022/05/27 00:55:01;;;;;;;0.3;0.3;;;;;;;16.5;100.0;101690;;;;
2022/05/27 00:56:01;;;;;;;0.3;0.3;;;;;;;16.4;100.0;101680;;;;
2022/05/27 00:57:03;;;;;;;0.3;0.3;;;;;;;16.4;100.0;101680;;;;
2022/05/27 00:58:09;;;;;;;0.3;0.3;;;;;;;16.5;100.0;101680;;;;
2022/05/27 00:59:03;;;;;;;0.3;0.3;;;;;;;16.5;100.0;101680;;;;
2022/05/27 01:00:07;;;;;;;0.3;0.3;;;;;;;16.6;100.0;101690;;;;
2022/05/27 01:01:00;;;;;;;0.3;0.3;;;;;;;16.6;100.0;101690;;;;
2022/05/27 01:02:00;;;;;;;0.3;0.3;;;;;;;16.5;100.0;101690;;;;
2022/05/27 01:03:01;;;;;;;0.3;0.3;;;;;;;16.5;100.0;101690;;;;
2022/05/27 01:04:01;;;;;;;0.3;0.3;;;;;;;16.4;100.0;101690;;;;
2022/05/27 01:05:01;;;;;;;0.3;0.3;;;;;;;16.4;100.0;101690;;;;
2022/05/27 01:06:00;;;;;;;0.3;0.3;;;;;;;16.1;100.0;101680;;;;
2022/05/27 01:07:00;;;;;;;0.3;0.3;;;;;;;16.1;100.0;101680;;;;
2022/05/27 01:08:03;;;;;;;0.3;0.3;;;;;;;16.3;100.0;101680;;;;
2022/05/27 01:09:00;;;;;;;0.3;0.3;;;;;;;16.3;100.0;101680;;;;
2022/05/27 01:10:01;;;;;;;0.3;0.3;;;;;;;16.3;100.0;101680;;;;
2022/05/27 01:11:00;;;;;;;0.3;0.3;;;;;;;16.3;100.0;101680;;;;
2022/05/27 01:12:15;;;;;;;0.3;0.3;;;;;;;16.5;100.0;101680;;;;
2022/05/27 01:13:12;;;;;;;0.3;0.3;;;;;;;16.5;100.0;101680;;;;
2022/05/27 01:14:00;;;;;;;0.3;0.3;;;;;;;16.4;100.0;101680;;;;
2022/05/27 01:15:08;;;;;;;0.3;0.3;;;;;;;16.4;100.0;101680;;;;
2022/05/27 01:16:00;;;;;;;0.7;0.6;;;;;;;16.3;100.0;101680;;;;
2022/05/27 01:17:10;;;;;;;0.7;0.6;;;;;;;16.3;100.0;101680;;;;
2022/05/27 01:18:09;;;;;;;0.7;0.6;;;;;;;16.4;100.0;101680;;;;
2022/05/27 01:21:02;;;;;;;0.7;0.6;;;;;;;16.3;100.0;101680;;;;
2022/05/27 01:22:03;;;;;;;0.7;0.6;;;;;;;16.4;100.0;101680;;;;
2022/05/27 01:23:10;;;;;;;0.7;0.6;;;;;;;16.4;100.0;101680;;;;
2022/05/27 01:24:10;;;;;;;0.7;0.6;;;;;;;16.1;100.0;101680;;;;
2022/05/27 01:25:10;;;;;;;0.7;0.6;;;;;;;16.1;100.0;101680;;;;
2022/05/27 01:26:10;;;;;;;0.7;0.6;;;;;;;16.2;100.0;101680;;;;
2022/05/27 01:27:10;;;;;;;0.7;0.6;;;;;;;16.2;100.0;101680;;;;
2022/05/27 01:28:10;;;;;;;0.7;0.6;;;;;;;16.1;100.0;101690;;;;
2022/05/27 01:29:10;;;;;;;0.7;0.6;;;;;;;16.1;100.0;101690;;;;
2022/05/27 01:30:10;;;;;;;0.7;0.6;;;;;;;16.2;100.0;101680;;;;
2022/05/27 01:31:04;;;;;;;0.7;0.6;;;;;;;16.2;100.0;101680;;;;
2022/05/27 01:32:10;;;;;;;0.7;0.6;;;;;;;16.2;100.0;101670;;;;
2022/05/27 01:33:07;;;;;;;0.7;0.6;;;;;;;16.2;100.0;101670;;;;
2022/05/27 01:34:10;;;;;;;0.7;0.6;;;;;;;16.2;100.0;101680;;;;
2022/05/27 01:35:10;;;;;;;0.7;0.6;;;;;;;16.2;100.0;101680;;;;
2022/05/27 01:36:05;;;;;;;0.5;0.5;;;;;;;16.1;100.0;101670;;;;
2022/05/27 01:37:07;;;;;;;0.5;0.5;;;;;;;16.1;100.0;101670;;;;
2022/05/27 01:38:10;;;;;;;0.5;0.5;;;;;;;16.1;100.0;101680;;;;
2022/05/27 01:39:00;;;;;;;0.5;0.5;;;;;;;16.1;100.0;101680;;;;
2022/05/27 01:40:10;;;;;;;0.5;0.5;;;;;;;16.2;100.0;101680;;;;
2022/05/27 01:41:10;;;;;;;0.5;0.5;;;;;;;16.2;100.0;101680;;;;
2022/05/27 01:42:05;;;;;;;0.5;0.5;;;;;;;16.1;100.0;101680;;;;
2022/05/27 01:43:04;;;;;;;0.5;0.5;;;;;;;16.1;100.0;101680;;;;
2022/05/27 01:44:05;;;;;;;0.5;0.5;;;;;;;16.1;100.0;101680;;;;
2022/05/27 01:45:07;;;;;;;0.5;0.5;;;;;;;16.1;100.0;101680;;;;
2022/05/27 01:46:06;;;;;;;0.5;0.5;;;;;;;16.0;100.0;101680;;;;
2022/05/27 01:47:01;;;;;;;0.5;0.5;;;;;;;16.0;100.0;101680;;;;
2022/05/27 01:48:01;;;;;;;0.5;0.5;;;;;;;16.1;100.0;101680;;;;
2022/05/27 01:49:07;;;;;;;0.5;0.5;;;;;;;16.1;100.0;101680;;;;
2022/05/27 01:50:10;;;;;;;0.5;0.5;;;;;;;16.0;100.0;101680;;;;
2022/05/27 01:51:04;;;;;;;0.5;0.5;;;;;;;16.0;100.0;101680;;;;
2022/05/27 01:52:11;;;;;;;0.5;0.5;;;;;;;15.9;100.0;101680;;;;
2022/05/27 01:53:07;;;;;;;0.5;0.5;;;;;;;15.9;100.0;101680;;;;
2022/05/27 01:54:10;;;;;;;0.5;0.5;;;;;;;16.0;100.0;101680;;;;
2022/05/27 01:55:10;;;;;;;0.5;0.5;;;;;;;16.0;100.0;101680;;;;
2022/05/27 01:56:06;;;;;;;0.3;0.3;;;;;;;15.9;100.0;101690;;;;
2022/05/27 01:57:03;;;;;;;0.3;0.3;;;;;;;15.9;100.0;101690;;;;
2022/05/27 01:58:02;;;;;;;0.3;0.3;;;;;;;15.9;100.0;101700;;;;
2022/05/27 01:59:02;;;;;;;0.3;0.3;;;;;;;15.9;100.0;101700;;;;
2022/05/27 02:00:00;;;;;;;0.3;0.3;;;;;;;15.9;100.0;101710;;;;
2022/05/27 02:01:00;;;;;;;0.3;0.3;;;;;;;15.9;100.0;101710;;;;
2022/05/27 02:02:04;;;;;;;0.3;0.3;;;;;;;15.9;100.0;101720;;;;
2022/05/27 02:03:04;;;;;;;0.3;0.3;;;;;;;15.9;100.0;101720;;;;
2022/05/27 02:04:03;;;;;;;0.3;0.3;;;;;;;15.9;100.0;101730;;;;
2022/05/27 02:05:02;;;;;;;0.3;0.3;;;;;;;15.9;100.0;101730;;;;
2022/05/27 02:06:03;;;;;;;0.3;0.3;;;;;;;15.9;100.0;101730;;;;
2022/05/27 02:07:02;;;;;;;0.3;0.3;;;;;;;15.9;100.0;101730;;;;
2022/05/27 02:08:05;;;;;;;0.3;0.3;;;;;;;15.7;100.0;101730;;;;
2022/05/27 02:09:04;;;;;;;0.3;0.3;;;;;;;15.7;100.0;101730;;;;
2022/05/27 02:10:03;;;;;;;0.3;0.3;;;;;;;15.8;100.0;101720;;;;
2022/05/27 02:11:02;;;;;;;0.3;0.3;;;;;;;15.8;100.0;101720;;;;
2022/05/27 02:12:05;;;;;;;0.3;0.3;;;;;;;15.6;100.0;101720;;;;
2022/05/27 02:13:04;;;;;;;0.3;0.3;;;;;;;15.6;100.0;101720;;;;
2022/05/27 02:14:02;;;;;;;0.3;0.3;;;;;;;15.6;100.0;101720;;;;
2022/05/27 02:15:03;;;;;;;0.3;0.3;;;;;;;15.6;100.0;101720;;;;
2022/05/27 02:16:01;;;;;;;0.4;0.4;;;;;;;15.5;100.0;101720;;;;
2022/05/27 02:17:04;;;;;;;0.4;0.4;;;;;;;15.5;100.0;101720;;;;
2022/05/27 02:18:04;;;;;;;0.4;0.4;;;;;;;15.5;100.0;101720;;;;
2022/05/27 02:19:04;;;;;;;0.4;0.4;;;;;;;15.5;100.0;101720;;;;
2022/05/27 02:20:05;;;;;;;0.4;0.4;;;;;;;15.5;100.0;101720;;;;
2022/05/27 02:21:03;;;;;;;0.4;0.4;;;;;;;15.5;100.0;101720;;;;
2022/05/27 02:22:04;;;;;;;0.4;0.4;;;;;;;15.5;100.0;101720;;;;
2022/05/27 02:23:06;;;;;;;0.4;0.4;;;;;;;15.5;100.0;101720;;;;
2022/05/27 02:24:05;;;;;;;0.4;0.4;;;;;;;15.3;100.0;101720;;;;
2022/05/27 02:25:04;;;;;;;0.4;0.4;;;;;;;15.3;100.0;101720;;;;
2022/05/27 02:26:02;;;;;;;0.4;0.4;;;;;;;15.3;100.0;101710;;;;
2022/05/27 02:27:03;;;;;;;0.4;0.4;;;;;;;15.3;100.0;101710;;;;
2022/05/27 02:28:10;;;;;;;0.4;0.4;;;;;;;15.3;100.0;101720;;;;
2022/05/27 02:29:02;;;;;;;0.4;0.4;;;;;;;15.3;100.0;101720;;;;
2022/05/27 02:30:03;;;;;;;0.4;0.4;;;;;;;15.2;100.0;101720;;;;
2022/05/27 02:31:10;;;;;;;0.4;0.4;;;;;;;15.2;100.0;101720;;;;
2022/05/27 02:32:05;;;;;;;0.4;0.4;;;;;;;15.3;100.0;101710;;;;
2022/05/27 02:35:10;;;;;;;0.4;0.4;;;;;;;15.4;100.0;101710;;;;
2022/05/27 02:36:02;;;;;;;0.3;0.3;;;;;;;15.3;100.0;101710;;;;
2022/05/27 02:37:05;;;;;;;0.3;0.3;;;;;;;15.3;100.0;101710;;;;
2022/05/27 02:38:00;;;;;;;0.3;0.3;;;;;;;15.1;100.0;101710;;;;
2022/05/27 02:39:00;;;;;;;0.3;0.3;;;;;;;15.1;100.0;101710;;;;
2022/05/27 02:40:01;;;;;;;0.3;0.3;;;;;;;15.2;100.0;101700;;;;
2022/05/27 02:41:10;;;;;;;0.3;0.3;;;;;;;15.2;100.0;101700;;;;
2022/05/27 02:42:08;;;;;;;0.3;0.3;;;;;;;15.3;100.0;101690;;;;
2022/05/27 02:43:10;;;;;;;0.3;0.3;;;;;;;15.3;100.0;101690;;;;
2022/05/27 02:44:07;;;;;;;0.3;0.3;;;;;;;15.1;100.0;101690;;;;
2022/05/27 02:45:09;;;;;;;0.3;0.3;;;;;;;15.1;100.0;101690;;;;
2022/05/27 02:46:10;;;;;;;0.3;0.3;;;;;;;15.3;100.0;101690;;;;
2022/05/27 02:47:10;;;;;;;0.3;0.3;;;;;;;15.3;100.0;101690;;;;
2022/05/27 02:48:10;;;;;;;0.3;0.3;;;;;;;15.2;100.0;101680;;;;
2022/05/27 02:49:03;;;;;;;0.3;0.3;;;;;;;15.2;100.0;101680;;;;
2022/05/27 02:50:06;;;;;;;0.3;0.3;;;;;;;15.3;100.0;101680;;;;
2022/05/27 02:51:10;;;;;;;0.3;0.3;;;;;;;15.3;100.0;101680;;;;
2022/05/27 02:52:07;;;;;;;0.3;0.3;;;;;;;15.3;100.0;101680;;;;
2022/05/27 02:53:00;;;;;;;0.3;0.3;;;;;;;15.3;100.0;101680;;;;
2022/05/27 02:54:10;;;;;;;0.3;0.3;;;;;;;15.2;100.0;101690;;;;
2022/05/27 02:55:06;;;;;;;0.3;0.3;;;;;;;15.2;100.0;101690;;;;
2022/05/27 02:56:10;;;;;;;0.4;0.4;;;;;;;15.3;100.0;101690;;;;
2022/05/27 02:57:10;;;;;;;0.4;0.4;;;;;;;15.3;100.0;101690;;;;
2022/05/27 02:58:02;;;;;;;0.4;0.4;;;;;;;15.2;100.0;101690;;;;
2022/05/27 02:59:00;;;;;;;0.4;0.4;;;;;;;15.2;100.0;101690;;;;
2022/05/27 03:00:01;;;;;;;0.4;0.4;;;;;;;15.3;100.0;101690;;;;
2022/05/27 03:01:00;;;;;;;0.4;0.4;;;;;;;15.3;100.0;101690;;;;
2022/05/27 03:02:10;;;;;;;0.4;0.4;;;;;;;15.3;100.0;101690;;;;
2022/05/27 03:03:00;;;;;;;0.4;0.4;;;;;;;15.3;100.0;101690;;;;
2022/05/27 03:04:00;;;;;;;0.4;0.4;;;;;;;15.3;100.0;101690;;;;
2022/05/27 03:05:01;;;;;;;0.4;0.4;;;;;;;15.3;100.0;101690;;;;
2022/05/27 03:06:01;;;;;;;0.4;0.4;;;;;;;15.3;100.0;101690;;;;
2022/05/27 03:07:10;;;;;;;0.4;0.4;;;;;;;15.3;100.0;101690;;;;
2022/05/27 03:08:10;;;;;;;0.4;0.4;;;;;;;15.2;100.0;101680;;;;
2022/05/27 03:09:10;;;;;;;0.4;0.4;;;;;;;15.2;100.0;101680;;;;
2022/05/27 03:10:08;;;;;;;0.4;0.4;;;;;;;15.3;100.0;101680;;;;
2022/05/27 03:11:03;;;;;;;0.4;0.4;;;;;;;15.3;100.0;101680;;;;
2022/05/27 03:12:07;;;;;;;0.4;0.4;;;;;;;15.1;100.0;101680;;;;
2022/05/27 03:13:10;;;;;;;0.4;0.4;;;;;;;15.1;100.0;101680;;;;
2022/05/27 03:14:06;;;;;;;0.4;0.4;;;;;;;15.2;100.0;101690;;;;
2022/05/27 03:15:08;;;;;;;0.4;0.4;;;;;;;15.2;100.0;101690;;;;
2022/05/27 03:16:10;;;;;;;0.4;0.4;;;;;;;15.2;100.0;101690;;;;
2022/05/27 03:17:01;;;;;;;0.4;0.4;;;;;;;15.2;100.0;101690;;;;
2022/05/27 03:18:10;;;;;;;0.4;0.4;;;;;;;15.1;100.0;101690;;;;
2022/05/27 03:19:10;;;;;;;0.4;0.4;;;;;;;15.1;100.0;101690;;;;
2022/05/27 03:20:01;;;;;;;0.4;0.4;;;;;;;15.1;100.0;101690;;;;
2022/05/27 03:21:10;;;;;;;0.4;0.4;;;;;;;15.1;100.0;101690;;;;
2022/05/27 03:22:10;;;;;;;0.4;0.4;;;;;;;15.1;100.0;101680;;;;
2022/05/27 03:23:10;;;;;;;0.4;0.4;;;;;;;15.1;100.0;101680;;;;
2022/05/27 03:24:10;;;;;;;0.4;0.4;;;;;;;15.1;100.0;101680;;;;
2022/05/27 03:25:09;;;;;;;0.4;0.4;;;;;;;15.1;100.0;101680;;;;
2022/05/27 03:26:03;;;;;;;0.4;0.4;;;;;;;15.1;100.0;101680;;;;
2022/05/27 03:27:06;;;;;;;0.4;0.4;;;;;;;15.1;100.0;101680;;;;
2022/05/27 03:28:10;;;;;;;0.4;0.4;;;;;;;15.1;100.0;101680;;;;
2022/05/27 03:29:03;;;;;;;0.4;0.4;;;;;;;15.1;100.0;101680;;;;
2022/05/27 03:30:05;;;;;;;0.4;0.4;;;;;;;15.0;100.0;101670;;;;
2022/05/27 03:31:03;;;;;;;0.4;0.4;;;;;;;15.0;100.0;101670;;;;
2022/05/27 03:32:07;;;;;;;0.4;0.4;;;;;;;14.9;100.0;101670;;;;
2022/05/27 03:33:07;;;;;;;0.4;0.4;;;;;;;14.9;100.0;101670;;;;
2022/05/27 03:34:01;;;;;;;0.4;0.4;;;;;;;14.9;100.0;101670;;;;
2022/05/27 03:35:06;;;;;;;0.4;0.4;;;;;;;14.9;100.0;101670;;;;
2022/05/27 03:36:10;;;;;;;0.3;0.3;;;;;;;14.9;100.0;101680;;;;
2022/05/27 03:37:01;;;;;;;0.3;0.3;;;;;;;14.9;100.0;101680;;;;
2022/05/27 03:38:10;;;;;;;0.3;0.3;;;;;;;15.0;100.0;101680;;;;
2022/05/27 03:39:06;;;;;;;0.3;0.3;;;;;;;15.0;100.0;101680;;;;
2022/05/27 03:40:10;;;;;;;0.3;0.3;;;;;;;14.9;100.0;101670;;;;
2022/05/27 03:41:03;;;;;;;0.3;0.3;;;;;;;14.9;100.0;101670;;;;
2022/05/27 03:42:02;;;;;;;0.3;0.3;;;;;;;14.9;100.0;101670;;;;
2022/05/27 03:43:01;;;;;;;0.3;0.3;;;;;;;14.9;100.0;101670;;;;
2022/05/27 03:44:00;;;;;;;0.3;0.3;;;;;;;14.9;100.0;101670;;;;
2022/05/27 03:45:07;;;;;;;0.3;0.3;;;;;;;14.9;100.0;101670;;;;
2022/05/27 03:46:00;;;;;;;0.3;0.3;;;;;;;14.9;100.0;101670;;;;
2022/05/27 03:47:01;;;;;;;0.3;0.3;;;;;;;14.9;100.0;101670;;;;
2022/05/27 03:48:00;;;;;;;0.3;0.3;;;;;;;15.0;100.0;101670;;;;
2022/05/27 03:49:00;;;;;;;0.3;0.3;;;;;;;15.0;100.0;101670;;;;
2022/05/27 03:50:00;;;;;;;0.3;0.3;;;;;;;15.0;100.0;101670;;;;
2022/05/27 03:51:03;;;;;;;0.3;0.3;;;;;;;15.0;100.0;101670;;;;
2022/05/27 03:52:08;;;;;;;0.3;0.3;;;;;;;14.9;100.0;101670;;;;
2022/05/27 03:53:00;;;;;;;0.3;0.3;;;;;;;14.9;100.0;101670;;;;
2022/05/27 03:54:06;;;;;;;0.3;0.3;;;;;;;14.9;100.0;101670;;;;
2022/05/27 03:55:00;;;;;;;0.3;0.3;;;;;;;14.9;100.0;101670;;;;
2022/05/27 03:56:00;;;;;;;0.3;0.3;;;;;;;14.9;100.0;101680;;;;
2022/05/27 03:57:00;;;;;;;0.3;0.3;;;;;;;14.9;100.0;101680;;;;
2022/05/27 03:58:00;;;;;;;0.3;0.3;;;;;;;15.0;100.0;101670;;;;
2022/05/27 03:59:01;;;;;;;0.3;0.3;;;;;;;15.0;100.0;101670;;;;
2022/05/27 04:00:00;;;;;;;0.3;0.3;;;;;;;15.0;100.0;101680;;;;
2022/05/27 04:01:00;;;;;;;0.3;0.3;;;;;;;15.0;100.0;101680;;;;
2022/05/27 04:02:00;;;;;;;0.3;0.3;;;;;;;15.0;100.0;101680;;;;
2022/05/27 04:03:00;;;;;;;0.3;0.3;;;;;;;15.0;100.0;101680;;;;
2022/05/27 04:04:01;;;;;;;0.3;0.3;;;;;;;15.0;100.0;101680;;;;
2022/05/27 04:05:01;;;;;;;0.3;0.3;;;;;;;15.0;100.0;101680;;;;
2022/05/27 04:06:00;;;;;;;0.3;0.3;;;;;;;15.0;100.0;101680;;;;
2022/05/27 04:07:00;;;;;;;0.3;0.3;;;;;;;15.0;100.0;101680;;;;
2022/05/27 04:08:00;;;;;;;0.3;0.3;;;;;;;15.0;100.0;101680;;;;
2022/05/27 04:09:00;;;;;;;0.3;0.3;;;;;;;15.0;100.0;101680;;;;
2022/05/27 04:10:00;;;;;;;0.3;0.3;;;;;;;15.1;100.0;101680;;;;
2022/05/27 04:11:00;;;;;;;0.3;0.3;;;;;;;15.1;100.0;101680;;;;
2022/05/27 04:12:00;;;;;;;0.3;0.3;;;;;;;15.1;100.0;101680;;;;
2022/05/27 04:13:00;;;;;;;0.3;0.3;;;;;;;15.1;100.0;101680;;;;
2022/05/27 04:14:00;;;;;;;0.3;0.3;;;;;;;15.1;100.0;101690;;;;
2022/05/27 04:15:00;;;;;;;0.3;0.3;;;;;;;15.1;100.0;101690;;;;
2022/05/27 04:16:00;;;;;;;0.4;0.4;;;;;;;15.0;100.0;101690;;;;
2022/05/27 04:18:00;;;;;;;0.4;0.4;;;;;;;15.0;100.0;101690;;;;
2022/05/27 04:19:00;;;;;;;0.4;0.4;;;;;;;15.0;100.0;101690;;;;
2022/05/27 04:20:01;;;;;;;0.4;0.4;;;;;;;15.1;100.0;101690;;;;
2022/05/27 04:21:00;;;;;;;0.4;0.4;;;;;;;15.1;100.0;101690;;;;
2022/05/27 04:22:00;;;;;;;0.4;0.4;;;;;;;15.1;100.0;101690;;;;
2022/05/27 04:23:00;;;;;;;0.4;0.4;;;;;;;15.1;100.0;101690;;;;
2022/05/27 04:24:00;;;;;;;0.4;0.4;;;;;;;15.2;100.0;101700;;;;
2022/05/27 04:25:00;;;;;;;0.4;0.4;;;;;;;15.2;100.0;101700;;;;
2022/05/27 04:26:00;;;;;;;0.4;0.4;;;;;;;15.1;100.0;101690;;;;
2022/05/27 04:27:06;;;;;;;0.4;0.4;;;;;;;15.1;100.0;101690;;;;
2022/05/27 04:28:00;;;;;;;0.4;0.4;;;;;;;15.1;100.0;101690;;;;
2022/05/27 04:29:00;;;;;;;0.4;0.4;;;;;;;15.1;100.0;101690;;;;
2022/05/27 04:30:00;;;;;;;0.4;0.4;;;;;;;15.1;100.0;101690;;;;
2022/05/27 04:31:00;;;;;;;0.4;0.4;;;;;;;15.1;100.0;101690;;;;
2022/05/27 04:32:00;;;;;;;0.4;0.4;;;;;;;15.2;100.0;101700;;;;
2022/05/27 04:33:00;;;;;;;0.4;0.4;;;;;;;15.2;100.0;101700;;;;
2022/05/27 04:34:00;;;;;;;0.4;0.4;;;;;;;15.1;100.0;101700;;;;
2022/05/27 04:35:01;;;;;;;0.4;0.4;;;;;;;15.1;100.0;101700;;;;
2022/05/27 04:36:00;;;;;;;0.6;0.6;;;;;;;15.1;100.0;101700;;;;
2022/05/27 04:37:00;;;;;;;0.6;0.6;;;;;;;15.1;100.0;101700;;;;
2022/05/27 04:38:00;;;;;;;0.6;0.6;;;;;;;15.2;100.0;101700;;;;
2022/05/27 04:39:00;;;;;;;0.6;0.6;;;;;;;15.2;100.0;101700;;;;
2022/05/27 04:40:00;;;;;;;0.6;0.6;;;;;;;15.1;100.0;101700;;;;
2022/05/27 04:41:00;;;;;;;0.6;0.6;;;;;;;15.1;100.0;101700;;;;
2022/05/27 04:42:00;;;;;;;0.6;0.6;;;;;;;15.2;100.0;101700;;;;
2022/05/27 04:43:01;;;;;;;0.6;0.6;;;;;;;15.2;100.0;101700;;;;
2022/05/27 04:44:00;;;;;;;0.6;0.6;;;;;;;15.2;100.0;101700;;;;
2022/05/27 04:45:01;;;;;;;0.6;0.6;;;;;;;15.2;100.0;101700;;;;
2022/05/27 04:46:00;;;;;;;0.6;0.6;;;;;;;15.1;100.0;101690;;;;
2022/05/27 04:47:00;;;;;;;0.6;0.6;;;;;;;15.1;100.0;101690;;;;
2022/05/27 04:48:00;;;;;;;0.6;0.6;;;;;;;15.1;100.0;101700;;;;
2022/05/27 04:49:00;;;;;;;0.6;0.6;;;;;;;15.1;100.0;101700;;;;
2022/05/27 04:50:00;;;;;;;0.6;0.6;;;;;;;15.1;100.0;101700;;;;
2022/05/27 04:51:00;;;;;;;0.6;0.6;;;;;;;15.1;100.0;101700;;;;
2022/05/27 04:52:00;;;;;;;0.6;0.6;;;;;;;15.2;100.0;101700;;;;
2022/05/27 04:53:00;;;;;;;0.6;0.6;;;;;;;15.2;100.0;101700;;;;
2022/05/27 04:54:00;;;;;;;0.6;0.6;;;;;;;15.2;100.0;101700;;;;
2022/05/27 04:55:02;;;;;;;0.4;0.4;;;;;;;15.2;100.0;101700;;;;
2022/05/27 04:56:00;;;;;;;0.4;0.4;;;;;;;15.3;100.0;101700;;;;
2022/05/27 04:57:00;;;;;;;0.4;0.4;;;;;;;15.3;100.0;101700;;;;
2022/05/27 04:58:00;;;;;;;0.4;0.4;;;;;;;15.2;100.0;101700;;;;
2022/05/27 04:59:00;;;;;;;0.4;0.4;;;;;;;15.2;100.0;101700;;;;
2022/05/27 05:00:02;;;;;;;0.4;0.4;;;;;;;15.2;100.0;101710;;;;
2022/05/27 05:01:00;;;;;;;0.4;0.4;;;;;;;15.2;100.0;101710;;;;
2022/05/27 05:02:00;;;;;;;0.4;0.4;;;;;;;15.1;100.0;101710;;;;
2022/05/27 05:03:00;;;;;;;0.4;0.4;;;;;;;15.1;100.0;101710;;;;
2022/05/27 05:04:00;;;;;;;0.4;0.4;;;;;;;15.2;100.0;101710;;;;
2022/05/27 05:05:01;;;;;;;0.4;0.4;;;;;;;15.2;100.0;101710;;;;
2022/05/27 05:06:00;;;;;;;0.4;0.4;;;;;;;15.2;100.0;101700;;;;
2022/05/27 05:07:01;;;;;;;0.4;0.4;;;;;;;15.2;100.0;101700;;;;
2022/05/27 05:08:03;;;;;;;0.4;0.4;;;;;;;15.2;100.0;101700;;;;
2022/05/27 05:09:03;;;;;;;0.4;0.4;;;;;;;15.2;100.0;101700;;;;
2022/05/27 05:10:00;;;;;;;0.4;0.4;;;;;;;15.2;100.0;101700;;;;
2022/05/27 05:11:01;;;;;;;0.4;0.4;;;;;;;15.2;100.0;101700;;;;
2022/05/27 05:12:00;;;;;;;0.4;0.4;;;;;;;15.1;100.0;101700;;;;
2022/05/27 05:13:00;;;;;;;0.4;0.4;;;;;;;15.1;100.0;101700;;;;
2022/05/27 05:14:00;;;;;;;0.4;0.4;;;;;;;15.2;100.0;101710;;;;
2022/05/27 05:15:00;;;;;;;0.4;0.4;;;;;;;15.2;100.0;101710;;;;
2022/05/27 05:16:00;;;;;;;0.4;0.4;;;;;;;15.3;100.0;101700;;;;
2022/05/27 05:17:00;;;;;;;0.4;0.4;;;;;;;15.3;100.0;101700;;;;
2022/05/27 05:18:00;;;;;;;0.4;0.4;;;;;;;15.2;100.0;101710;;;;
2022/05/27 05:19:00;;;;;;;0.4;0.4;;;;;;;15.2;100.0;101710;;;;
2022/05/27 05:20:00;;;;;;;0.4;0.4;;;;;;;15.3;100.0;101710;;;;
2022/05/27 05:21:00;;;;;;;0.4;0.4;;;;;;;15.3;100.0;101710;;;;
2022/05/27 05:22:00;;;;;;;0.4;0.4;;;;;;;15.3;100.0;101710;;;;
2022/05/27 05:23:00;;;;;;;0.4;0.4;;;;;;;15.3;100.0;101710;;;;
2022/05/27 05:24:00;;;;;;;0.4;0.4;;;;;;;15.4;100.0;101720;;;;
2022/05/27 05:25:00;;;;;;;0.4;0.4;;;;;;;15.4;100.0;101720;;;;
2022/05/27 05:26:00;;;;;;;0.4;0.4;;;;;;;15.4;100.0;101720;;;;
2022/05/27 05:27:00;;;;;;;0.4;0.4;;;;;;;15.4;100.0;101720;;;;
2022/05/27 05:28:01;;;;;;;0.4;0.4;;;;;;;15.4;100.0;101720;;;;
2022/05/27 05:29:00;;;;;;;0.4;0.4;;;;;;;15.4;100.0;101720;;;;
2022/05/27 05:30:00;;;;;;;0.4;0.4;;;;;;;15.5;100.0;101730;;;;
2022/05/27 05:31:00;;;;;;;0.4;0.4;;;;;;;15.5;100.0;101730;;;;
2022/05/27 05:32:00;;;;;;;0.4;0.4;;;;;;;15.4;100.0;101730;;;;
2022/05/27 05:33:00;;;;;;;0.4;0.4;;;;;;;15.4;100.0;101730;;;;
2022/05/27 05:34:00;;;;;;;0.4;0.4;;;;;;;15.6;100.0;101730;;;;
2022/05/27 05:35:01;;;;;;;0.3;0.3;;;;;;;15.6;100.0;101730;;;;
2022/05/27 05:36:00;;;;;;;0.3;0.3;;;;;;;15.5;100.0;101730;;;;
2022/05/27 05:37:00;;;;;;;0.3;0.3;;;;;;;15.5;100.0;101730;;;;
2022/05/27 05:38:00;;;;;;;0.3;0.3;;;;;;;15.5;100.0;101730;;;;
2022/05/27 05:39:00;;;;;;;0.3;0.3;;;;;;;15.5;100.0;101730;;;;
2022/05/27 05:40:00;;;;;;;0.3;0.3;;;;;;;15.6;100.0;101740;;;;
2022/05/27 05:41:00;;;;;;;0.3;0.3;;;;;;;15.6;100.0;101740;;;;
2022/05/27 05:42:01;;;;;;;0.3;0.3;;;;;;;15.7;100.0;101740;;;;
2022/05/27 05:43:01;;;;;;;0.3;0.3;;;;;;;15.7;100.0;101740;;;;
2022/05/27 05:44:00;;;;;;;0.3;0.3;;;;;;;15.7;100.0;101740;;;;
2022/05/27 05:45:00;;;;;;;0.3;0.3;;;;;;;15.7;100.0;101740;;;;
2022/05/27 05:46:00;;;;;;;0.3;0.3;;;;;;;15.8;100.0;101740;;;;
2022/05/27 05:47:01;;;;;;;0.3;0.3;;;;;;;15.8;100.0;101740;;;;
2022/05/27 05:48:00;;;;;;;0.3;0.3;;;;;;;15.7;100.0;101740;;;;
2022/05/27 05:49:00;;;;;;;0.3;0.3;;;;;;;15.7;100.0;101740;;;;
2022/05/27 05:50:00;;;;;;;0.3;0.3;;;;;;;15.6;100.0;101740;;;;
2022/05/27 05:51:00;;;;;;;0.3;0.3;;;;;;;15.6;100.0;101740;;;;
2022/05/27 05:52:00;;;;;;;0.3;0.3;;;;;;;15.7;100.0;101750;;;;
2022/05/27 05:53:00;;;;;;;0.3;0.3;;;;;;;15.7;100.0;101750;;;;
2022/05/27 05:54:00;;;;;;;0.3;0.3;;;;;;;15.8;100.0;101740;;;;
2022/05/27 05:55:00;;;;;;;0.4;0.4;;;;;;;15.8;100.0;101740;;;;
2022/05/27 05:56:00;;;;;;;0.4;0.4;;;;;;;15.8;100.0;101740;;;;
2022/05/27 05:57:01;;;;;;;0.4;0.4;;;;;;;15.8;100.0;101740;;;;
2022/05/27 05:59:00;;;;;;;0.4;0.4;;;;;;;15.9;100.0;101750;;;;
2022/05/27 06:01:00;;;;;;;0.4;0.4;;;;;;;15.8;100.0;101750;;;;
2022/05/27 06:03:00;;;;;;;0.4;0.4;;;;;;;15.7;100.0;101750;;;;
2022/05/27 06:04:00;;;;;;;0.4;0.4;;;;;;;15.8;100.0;101750;;;;
2022/05/27 06:05:03;;;;;;;0.4;0.4;;;;;;;15.8;100.0;101750;;;;
2022/05/27 06:06:00;;;;;;;0.4;0.4;;;;;;;15.8;100.0;101760;;;;
2022/05/27 06:07:00;;;;;;;0.4;0.4;;;;;;;15.8;100.0;101760;;;;
2022/05/27 06:08:01;;;;;;;0.4;0.4;;;;;;;15.7;100.0;101760;;;;
2022/05/27 06:09:00;;;;;;;0.4;0.4;;;;;;;15.7;100.0;101760;;;;
2022/05/27 06:10:01;;;;;;;0.4;0.4;;;;;;;15.8;100.0;101760;;;;
2022/05/27 06:11:00;;;;;;;0.4;0.4;;;;;;;15.8;100.0;101760;;;;
2022/05/27 06:12:01;;;;;;;0.4;0.4;;;;;;;15.8;100.0;101760;;;;
2022/05/27 06:13:00;;;;;;;0.4;0.4;;;;;;;15.8;100.0;101760;;;;
2022/05/27 06:14:00;;;;;;;0.4;0.4;;;;;;;15.8;100.0;101760;;;;
2022/05/27 06:15:00;;;;;;;0.6;0.6;;;;;;;15.8;100.0;101760;;;;
2022/05/27 06:16:00;;;;;;;0.6;0.6;;;;;;;15.7;100.0;101750;;;;
2022/05/27 06:17:00;;;;;;;0.6;0.6;;;;;;;15.7;100.0;101750;;;;
2022/05/27 06:18:00;;;;;;;0.6;0.6;;;;;;;15.7;100.0;101750;;;;
2022/05/27 06:19:00;;;;;;;0.6;0.6;;;;;;;15.7;100.0;101750;;;;
2022/05/27 06:20:00;;;;;;;0.6;0.6;;;;;;;15.7;100.0;101760;;;;
2022/05/27 06:21:00;;;;;;;0.6;0.6;;;;;;;15.7;100.0;101760;;;;
2022/05/27 06:22:00;;;;;;;0.6;0.6;;;;;;;15.8;100.0;101760;;;;
2022/05/27 06:23:02;;;;;;;0.6;0.6;;;;;;;15.8;100.0;101760;;;;
2022/05/27 06:24:01;;;;;;;0.6;0.6;;;;;;;15.7;100.0;101760;;;;
2022/05/27 06:25:00;;;;;;;0.6;0.6;;;;;;;15.7;100.0;101760;;;;
2022/05/27 06:26:03;;;;;;;0.6;0.6;;;;;;;15.7;100.0;101760;;;;
2022/05/27 06:27:00;;;;;;;0.6;0.6;;;;;;;15.7;100.0;101760;;;;
2022/05/27 06:35:01;;;;;;;1.4;1.3;;;;;;;15.6;100.0;101780;;;;
2022/05/27 06:36:00;;;;;;;1.4;1.3;;;;;;;15.6;100.0;101770;;;;
2022/05/27 06:37:00;;;;;;;1.4;1.3;;;;;;;15.6;100.0;101770;;;;